sensor_id;sensor_type;location;lat;lon;timestamp;pressure;altitude;pressure_sealevel;temperature;humidity
26635;BME280;14490;54.208;37.686;2023-04-09T00:00:18;100185.28;;;6.93;100.00
26635;BME280;14490;54.208;37.686;2023-04-09T00:02:45;100190.63;;;6.93;100.00
26635;BME280;14490;54.208;37.686;2023-04-09T00:05:13;100195.28;;;6.89;100.00
26635;BME280;14490;54.208;37.686;2023-04-09T00:07:40;100190.63;;;6.77;100.00
26635;BME280;14490;54.208;37.686;2023-04-09T00:10:09;100205.47;;;6.83;100.00
26635;BME280;14490;54.208;37.686;2023-04-09T00:12:37;100187.59;;;6.68;100.00
26635;BME280;14490;54.208;37.686;2023-04-09T00:15:05;100197.78;;;6.77;100.00
26635;BME280;14490;54.208;37.686;2023-04-09T00:17:33;100199.59;;;6.76;100.00
26635;BME280;14490;54.208;37.686;2023-04-09T00:20:01;100200.44;;;6.77;100.00
26635;BME280;14490;54.208;37.686;2023-04-09T00:22:49;100198.09;;;6.71;100.00
26635;BME280;14490;54.208;37.686;2023-04-09T00:25:18;100207.88;;;6.72;100.00
26635;BME280;14490;54.208;37.686;2023-04-09T00:27:47;100208.81;;;6.71;100.00
26635;BME280;14490;54.208;37.686;2023-04-09T00:30:14;100222.34;;;6.68;100.00
26635;BME280;14490;54.208;37.686;2023-04-09T00:32:42;100203.09;;;6.61;100.00
26635;BME280;14490;54.208;37.686;2023-04-09T00:35:09;100116.97;;;6.06;100.00
26635;BME280;14490;54.208;37.686;2023-04-09T00:37:36;100211.81;;;6.65;100.00
26635;BME280;14490;54.208;37.686;2023-04-09T00:40:05;100206.47;;;6.65;100.00
26635;BME280;14490;54.208;37.686;2023-04-09T00:42:35;100199.00;;;6.54;100.00
26635;BME280;14490;54.208;37.686;2023-04-09T00:45:03;100203.97;;;6.62;100.00
26635;BME280;14490;54.208;37.686;2023-04-09T00:47:32;100186.69;;;6.51;100.00
26635;BME280;14490;54.208;37.686;2023-04-09T00:50:01;100189.50;;;6.48;100.00
26635;BME280;14490;54.208;37.686;2023-04-09T00:52:29;100211.22;;;6.59;100.00
26635;BME280;14490;54.208;37.686;2023-04-09T00:54:58;100200.91;;;6.52;100.00
26635;BME280;14490;54.208;37.686;2023-04-09T00:57:26;100210.56;;;6.54;100.00
26635;BME280;14490;54.208;37.686;2023-04-09T00:59:56;100208.78;;;6.55;100.00
26635;BME280;14490;54.208;37.686;2023-04-09T01:02:23;100199.44;;;6.46;100.00
26635;BME280;14490;54.208;37.686;2023-04-09T01:04:50;100209.03;;;6.50;100.00
26635;BME280;14490;54.208;37.686;2023-04-09T01:07:26;100206.25;;;6.52;100.00
26635;BME280;14490;54.208;37.686;2023-04-09T01:10:10;100187.66;;;6.33;100.00
26635;BME280;14490;54.208;37.686;2023-04-09T01:12:48;100169.44;;;6.24;100.00
26635;BME280;14490;54.208;37.686;2023-04-09T01:15:25;100202.44;;;6.40;100.00
26635;BME280;14490;54.208;37.686;2023-04-09T01:18:01;100194.50;;;6.39;100.00
26635;BME280;14490;54.208;37.686;2023-04-09T01:20:34;100185.75;;;6.35;100.00
26635;BME280;14490;54.208;37.686;2023-04-09T01:23:13;100203.84;;;6.47;100.00
26635;BME280;14490;54.208;37.686;2023-04-09T01:25:54;100207.47;;;6.46;100.00
26635;BME280;14490;54.208;37.686;2023-04-09T01:28:32;100203.47;;;6.38;100.00
26635;BME280;14490;54.208;37.686;2023-04-09T01:31:10;100204.94;;;6.43;100.00
26635;BME280;14490;54.208;37.686;2023-04-09T01:33:40;100205.72;;;6.45;100.00
26635;BME280;14490;54.208;37.686;2023-04-09T01:36:08;100203.84;;;6.47;100.00
26635;BME280;14490;54.208;37.686;2023-04-09T01:38:39;100159.09;;;6.18;100.00
26635;BME280;14490;54.208;37.686;2023-04-09T01:41:10;100207.38;;;6.48;100.00
26635;BME280;14490;54.208;37.686;2023-04-09T01:43:42;100206.44;;;6.49;100.00
26635;BME280;14490;54.208;37.686;2023-04-09T01:46:10;100209.03;;;6.50;100.00
26635;BME280;14490;54.208;37.686;2023-04-09T01:48:39;100196.66;;;6.48;100.00
26635;BME280;14490;54.208;37.686;2023-04-09T01:51:06;100188.09;;;6.41;100.00
26635;BME280;14490;54.208;37.686;2023-04-09T01:53:34;100202.72;;;6.51;100.00
26635;BME280;14490;54.208;37.686;2023-04-09T01:56:02;100203.75;;;6.49;100.00
26635;BME280;14490;54.208;37.686;2023-04-09T01:58:30;100210.13;;;6.46;100.00
26635;BME280;14490;54.208;37.686;2023-04-09T02:01:04;100205.56;;;6.48;100.00
26635;BME280;14490;54.208;37.686;2023-04-09T02:03:40;100195.19;;;6.42;100.00
26635;BME280;14490;54.208;37.686;2023-04-09T02:06:13;100194.25;;;6.43;100.00
26635;BME280;14490;54.208;37.686;2023-04-09T02:08:45;100179.66;;;6.33;100.00
26635;BME280;14490;54.208;37.686;2023-04-09T02:11:14;100200.38;;;6.45;100.00
26635;BME280;14490;54.208;37.686;2023-04-09T02:13:42;100202.72;;;6.51;100.00
26635;BME280;14490;54.208;37.686;2023-04-09T02:16:12;100191.41;;;6.46;100.00
26635;BME280;14490;54.208;37.686;2023-04-09T02:18:42;100203.75;;;6.49;100.00
26635;BME280;14490;54.208;37.686;2023-04-09T02:21:10;100178.88;;;6.31;100.00
26635;BME280;14490;54.208;37.686;2023-04-09T02:23:38;100206.38;;;6.50;100.00
26635;BME280;14490;54.208;37.686;2023-04-09T02:26:05;100205.41;;;6.51;100.00
26635;BME280;14490;54.208;37.686;2023-04-09T02:28:33;100205.31;;;6.53;100.00
26635;BME280;14490;54.208;37.686;2023-04-09T02:31:00;100196.50;;;6.51;100.00
26635;BME280;14490;54.208;37.686;2023-04-09T02:33:29;100182.47;;;6.47;100.00
26635;BME280;14490;54.208;37.686;2023-04-09T02:35:57;100205.53;;;6.66;100.00
26635;BME280;14490;54.208;37.686;2023-04-09T02:38:24;100206.47;;;6.65;100.00
26635;BME280;14490;54.208;37.686;2023-04-09T02:40:51;100205.75;;;6.61;100.00
26635;BME280;14490;54.208;37.686;2023-04-09T02:43:19;100185.56;;;6.55;100.00
26635;BME280;14490;54.208;37.686;2023-04-09T02:45:46;100194.38;;;6.57;100.00
26635;BME280;14490;54.208;37.686;2023-04-09T02:48:14;100204.41;;;6.70;100.00
26635;BME280;14490;54.208;37.686;2023-04-09T02:50:42;100218.41;;;6.75;100.00
26635;BME280;14490;54.208;37.686;2023-04-09T02:53:10;100180.06;;;6.58;100.00
26635;BME280;14490;54.208;37.686;2023-04-09T02:55:37;100207.53;;;6.78;100.00
26635;BME280;14490;54.208;37.686;2023-04-09T02:58:05;100194.56;;;6.70;100.00
26635;BME280;14490;54.208;37.686;2023-04-09T03:00:32;100209.41;;;6.76;100.00
26635;BME280;14490;54.208;37.686;2023-04-09T03:02:59;100198.28;;;6.68;100.00
26635;BME280;14490;54.208;37.686;2023-04-09T03:05:27;100211.31;;;6.74;100.00
26635;BME280;14490;54.208;37.686;2023-04-09T03:07:56;100186.19;;;6.60;100.00
26635;BME280;14490;54.208;37.686;2023-04-09T03:10:23;100207.53;;;6.78;100.00
26635;BME280;14490;54.208;37.686;2023-04-09T03:12:51;100213.16;;;6.89;100.00
26635;BME280;14490;54.208;37.686;2023-04-09T03:15:18;100208.75;;;6.88;100.00
26635;BME280;14490;54.208;37.686;2023-04-09T03:17:46;100205.63;;;6.80;100.00
26635;BME280;14490;54.208;37.686;2023-04-09T03:20:13;100217.03;;;6.83;100.00
26635;BME280;14490;54.208;37.686;2023-04-09T03:22:40;100223.31;;;6.82;100.00
26635;BME280;14490;54.208;37.686;2023-04-09T03:25:09;100208.13;;;6.83;100.00
26635;BME280;14490;54.208;37.686;2023-04-09T03:27:37;100216.16;;;6.83;100.00
26635;BME280;14490;54.208;37.686;2023-04-09T03:30:05;100200.84;;;6.69;100.00
26635;BME280;14490;54.208;37.686;2023-04-09T03:32:35;100209.78;;;6.85;100.00
26635;BME280;14490;54.208;37.686;2023-04-09T03:35:03;100217.72;;;6.87;100.00
26635;BME280;14490;54.208;37.686;2023-04-09T03:37:31;100182.56;;;6.62;100.00
26635;BME280;14490;54.208;37.686;2023-04-09T03:40:11;100216.00;;;6.86;100.00
26635;BME280;14490;54.208;37.686;2023-04-09T03:42:43;100221.25;;;6.87;100.00
26635;BME280;14490;54.208;37.686;2023-04-09T03:45:10;100221.94;;;6.91;100.00
26635;BME280;14490;54.208;37.686;2023-04-09T03:47:38;100215.66;;;6.92;100.00
26635;BME280;14490;54.208;37.686;2023-04-09T03:50:06;100164.63;;;6.64;100.00
26635;BME280;14490;54.208;37.686;2023-04-09T03:52:34;100198.22;;;6.85;100.00
26635;BME280;14490;54.208;37.686;2023-04-09T03:55:02;100218.00;;;6.98;100.00
26635;BME280;14490;54.208;37.686;2023-04-09T03:57:31;100207.13;;;7.01;100.00
26635;BME280;14490;54.208;37.686;2023-04-09T03:59:58;100227.84;;;7.13;100.00
26635;BME280;14490;54.208;37.686;2023-04-09T04:02:29;100224.66;;;7.22;100.00
26635;BME280;14490;54.208;37.686;2023-04-09T04:04:58;100229.47;;;7.31;100.00
26635;BME280;14490;54.208;37.686;2023-04-09T04:07:26;100227.06;;;7.42;100.00
26635;BME280;14490;54.208;37.686;2023-04-09T04:09:54;100230.00;;;7.53;100.00
26635;BME280;14490;54.208;37.686;2023-04-09T04:12:23;100223.59;;;7.56;100.00
26635;BME280;14490;54.208;37.686;2023-04-09T04:14:54;100213.47;;;7.61;100.00
26635;BME280;14490;54.208;37.686;2023-04-09T04:17:22;100225.09;;;7.76;100.00
26635;BME280;14490;54.208;37.686;2023-04-09T04:19:49;100216.53;;;7.85;100.00
26635;BME280;14490;54.208;37.686;2023-04-09T04:22:16;100206.78;;;7.84;100.00
26635;BME280;14490;54.208;37.686;2023-04-09T04:24:44;100228.66;;;8.06;100.00
26635;BME280;14490;54.208;37.686;2023-04-09T04:27:11;100208.88;;;8.08;100.00
26635;BME280;14490;54.208;37.686;2023-04-09T04:29:39;100212.84;;;8.31;100.00
26635;BME280;14490;54.208;37.686;2023-04-09T04:32:07;100196.50;;;8.36;100.00
26635;BME280;14490;54.208;37.686;2023-04-09T04:34:35;100191.31;;;8.47;100.00
26635;BME280;14490;54.208;37.686;2023-04-09T04:37:02;100221.50;;;8.64;100.00
26635;BME280;14490;54.208;37.686;2023-04-09T04:39:30;100192.66;;;8.54;100.00
26635;BME280;14490;54.208;37.686;2023-04-09T04:41:57;100216.31;;;8.75;100.00
26635;BME280;14490;54.208;37.686;2023-04-09T04:44:24;100171.41;;;8.51;100.00
26635;BME280;14490;54.208;37.686;2023-04-09T04:46:51;100214.50;;;8.76;100.00
26635;BME280;14490;54.208;37.686;2023-04-09T04:49:20;100225.13;;;8.92;100.00
26635;BME280;14490;54.208;37.686;2023-04-09T04:51:48;100224.34;;;9.04;100.00
26635;BME280;14490;54.208;37.686;2023-04-09T04:54:15;100216.88;;;9.09;100.00
26635;BME280;14490;54.208;37.686;2023-04-09T04:56:42;100204.13;;;8.98;100.00
26635;BME280;14490;54.208;37.686;2023-04-09T04:59:10;100217.31;;;9.15;100.00
26635;BME280;14490;54.208;37.686;2023-04-09T05:01:42;100229.28;;;9.38;100.00
26635;BME280;14490;54.208;37.686;2023-04-09T05:04:09;100212.56;;;9.47;100.00
26635;BME280;14490;54.208;37.686;2023-04-09T05:06:38;100207.50;;;9.69;100.00
26635;BME280;14490;54.208;37.686;2023-04-09T05:09:06;100236.22;;;10.08;100.00
26635;BME280;14490;54.208;37.686;2023-04-09T05:11:33;100222.28;;;10.28;100.00
26635;BME280;14490;54.208;37.686;2023-04-09T05:14:00;100212.63;;;10.51;100.00
26635;BME280;14490;54.208;37.686;2023-04-09T05:16:28;100231.56;;;10.75;100.00
26635;BME280;14490;54.208;37.686;2023-04-09T05:18:56;100199.91;;;10.66;100.00
26635;BME280;14490;54.208;37.686;2023-04-09T05:21:23;100230.69;;;11.00;100.00
26635;BME280;14490;54.208;37.686;2023-04-09T05:23:53;100205.06;;;10.94;100.00
26635;BME280;14490;54.208;37.686;2023-04-09T05:26:23;100229.16;;;11.08;100.00
26635;BME280;14490;54.208;37.686;2023-04-09T05:28:51;100152.13;;;10.57;100.00
26635;BME280;14490;54.208;37.686;2023-04-09T05:31:19;100230.78;;;10.98;100.00
26635;BME280;14490;54.208;37.686;2023-04-09T05:33:48;100233.69;;;10.95;100.00
26635;BME280;14490;54.208;37.686;2023-04-09T05:36:16;100223.56;;;10.98;100.00
26635;BME280;14490;54.208;37.686;2023-04-09T05:38:46;100235.84;;;11.15;100.00
26635;BME280;14490;54.208;37.686;2023-04-09T05:41:15;100202.47;;;10.92;100.00
26635;BME280;14490;54.208;37.686;2023-04-09T05:43:42;100237.44;;;11.30;100.00
26635;BME280;14490;54.208;37.686;2023-04-09T05:46:10;100216.59;;;11.32;100.00
26635;BME280;14490;54.208;37.686;2023-04-09T05:48:37;100240.03;;;11.56;100.00
26635;BME280;14490;54.208;37.686;2023-04-09T05:51:07;100239.97;;;11.68;100.00
26635;BME280;14490;54.208;37.686;2023-04-09T05:53:35;100237.63;;;11.76;100.00
26635;BME280;14490;54.208;37.686;2023-04-09T05:56:02;100230.91;;;11.69;100.00
26635;BME280;14490;54.208;37.686;2023-04-09T05:58:32;100233.53;;;11.71;100.00
26635;BME280;14490;54.208;37.686;2023-04-09T06:00:59;100243.13;;;11.75;100.00
26635;BME280;14490;54.208;37.686;2023-04-09T06:03:27;100238.13;;;11.81;100.00
26635;BME280;14490;54.208;37.686;2023-04-09T06:05:54;100249.41;;;11.86;100.00
26635;BME280;14490;54.208;37.686;2023-04-09T06:08:21;100247.88;;;11.95;100.00
26635;BME280;14490;54.208;37.686;2023-04-09T06:10:49;100243.56;;;11.92;100.00
26635;BME280;14490;54.208;37.686;2023-04-09T06:13:17;100198.50;;;11.58;100.00
26635;BME280;14490;54.208;37.686;2023-04-09T06:15:47;100243.78;;;11.89;100.00
26635;BME280;14490;54.208;37.686;2023-04-09T06:18:14;100226.59;;;11.79;100.00
26635;BME280;14490;54.208;37.686;2023-04-09T06:20:42;100239.09;;;11.80;100.00
26635;BME280;14490;54.208;37.686;2023-04-09T06:23:10;100243.34;;;11.95;100.00
26635;BME280;14490;54.208;37.686;2023-04-09T06:25:37;100248.34;;;12.13;100.00
26635;BME280;14490;54.208;37.686;2023-04-09T06:28:04;100235.06;;;12.10;100.00
26635;BME280;14490;54.208;37.686;2023-04-09T06:30:32;100250.34;;;12.22;100.00
26635;BME280;14490;54.208;37.686;2023-04-09T06:33:02;100238.03;;;12.18;100.00
26635;BME280;14490;54.208;37.686;2023-04-09T06:35:33;100256.00;;;12.41;100.00
26635;BME280;14490;54.208;37.686;2023-04-09T06:38:00;100248.22;;;12.49;100.00
26635;BME280;14490;54.208;37.686;2023-04-09T06:40:27;100253.59;;;12.49;100.00
26635;BME280;14490;54.208;37.686;2023-04-09T06:42:55;100240.59;;;12.54;100.00
26635;BME280;14490;54.208;37.686;2023-04-09T06:45:46;100252.75;;;12.71;100.00
26635;BME280;14490;54.208;37.686;2023-04-09T06:48:17;100250.47;;;12.88;100.00
26635;BME280;14490;54.208;37.686;2023-04-09T06:50:44;100252.94;;;13.02;100.00
26635;BME280;14490;54.208;37.686;2023-04-09T06:53:11;100246.09;;;13.09;100.00
26635;BME280;14490;54.208;37.686;2023-04-09T06:55:40;100254.91;;;13.00;100.00
26635;BME280;14490;54.208;37.686;2023-04-09T06:58:08;100255.19;;;13.08;100.00
26635;BME280;14490;54.208;37.686;2023-04-09T07:00:35;100254.44;;;13.18;100.00
26635;BME280;14490;54.208;37.686;2023-04-09T07:03:03;100244.59;;;13.17;100.00
26635;BME280;14490;54.208;37.686;2023-04-09T07:05:34;100259.06;;;13.04;100.00
26635;BME280;14490;54.208;37.686;2023-04-09T07:08:02;100244.47;;;12.85;100.00
26635;BME280;14490;54.208;37.686;2023-04-09T07:10:29;100261.28;;;12.88;100.00
26635;BME280;14490;54.208;37.686;2023-04-09T07:12:57;100261.78;;;12.82;100.00
26635;BME280;14490;54.208;37.686;2023-04-09T07:15:25;100253.44;;;12.85;100.00
26635;BME280;14490;54.208;37.686;2023-04-09T07:17:52;100248.03;;;12.85;100.00
26635;BME280;14490;54.208;37.686;2023-04-09T07:20:22;100257.09;;;12.95;100.00
26635;BME280;14490;54.208;37.686;2023-04-09T07:22:51;100249.72;;;12.75;100.00
26635;BME280;14490;54.208;37.686;2023-04-09T07:25:18;100261.09;;;12.68;100.00
26635;BME280;14490;54.208;37.686;2023-04-09T07:27:46;100260.28;;;12.67;100.00
26635;BME280;14490;54.208;37.686;2023-04-09T07:30:14;100264.53;;;12.58;100.00
26635;BME280;14490;54.208;37.686;2023-04-09T07:32:41;100248.28;;;12.36;100.00
26635;BME280;14490;54.208;37.686;2023-04-09T07:35:09;100255.84;;;12.31;100.00
26635;BME280;14490;54.208;37.686;2023-04-09T07:37:43;100258.25;;;12.47;100.00
26635;BME280;14490;54.208;37.686;2023-04-09T07:40:13;100261.97;;;12.68;100.00
26635;BME280;14490;54.208;37.686;2023-04-09T07:42:42;100262.34;;;12.75;100.00
26635;BME280;14490;54.208;37.686;2023-04-09T07:45:09;100262.72;;;12.70;100.00
26635;BME280;14490;54.208;37.686;2023-04-09T07:47:37;100250.69;;;12.63;100.00
26635;BME280;14490;54.208;37.686;2023-04-09T07:50:07;100275.38;;;12.81;100.00
26635;BME280;14490;54.208;37.686;2023-04-09T07:52:38;100258.31;;;12.80;100.00
26635;BME280;14490;54.208;37.686;2023-04-09T07:55:07;100261.53;;;12.85;100.00
26635;BME280;14490;54.208;37.686;2023-04-09T07:57:36;100239.53;;;12.79;100.00
26635;BME280;14490;54.208;37.686;2023-04-09T08:00:08;100234.00;;;12.80;100.00
26635;BME280;14490;54.208;37.686;2023-04-09T08:02:36;100250.19;;;12.69;100.00
26635;BME280;14490;54.208;37.686;2023-04-09T08:05:04;100235.81;;;12.57;100.00
26635;BME280;14490;54.208;37.686;2023-04-09T08:07:32;100239.78;;;12.76;100.00
26635;BME280;14490;54.208;37.686;2023-04-09T08:10:00;100248.75;;;12.87;100.00
26635;BME280;14490;54.208;37.686;2023-04-09T08:12:27;100240.28;;;12.92;100.00
26635;BME280;14490;54.208;37.686;2023-04-09T08:14:56;100248.75;;;12.98;100.00
26635;BME280;14490;54.208;37.686;2023-04-09T08:17:24;100242.66;;;13.19;100.00
26635;BME280;14490;54.208;37.686;2023-04-09T08:19:51;100219.31;;;13.18;100.00
26635;BME280;14490;54.208;37.686;2023-04-09T08:22:19;100241.75;;;13.51;100.00
26635;BME280;14490;54.208;37.686;2023-04-09T08:24:50;100226.91;;;13.35;99.21
26635;BME280;14490;54.208;37.686;2023-04-09T08:27:20;100234.75;;;13.38;99.92
26635;BME280;14490;54.208;37.686;2023-04-09T08:29:48;100241.16;;;13.37;100.00
26635;BME280;14490;54.208;37.686;2023-04-09T08:32:30;100145.59;;;12.93;100.00
26635;BME280;14490;54.208;37.686;2023-04-09T08:34:57;100202.91;;;13.52;100.00
26635;BME280;14490;54.208;37.686;2023-04-09T08:37:25;100230.50;;;13.78;93.82
26635;BME280;14490;54.208;37.686;2023-04-09T08:39:54;100236.53;;;13.82;87.73
26635;BME280;14490;54.208;37.686;2023-04-09T08:42:32;100232.84;;;13.83;84.04
26635;BME280;14490;54.208;37.686;2023-04-09T08:45:02;100230.69;;;13.97;89.90
26635;BME280;14490;54.208;37.686;2023-04-09T08:47:33;100240.75;;;14.06;84.91
26635;BME280;14490;54.208;37.686;2023-04-09T08:50:06;100242.44;;;14.07;81.60
26635;BME280;14490;54.208;37.686;2023-04-09T08:52:36;100209.03;;;13.97;78.21
26635;BME280;14490;54.208;37.686;2023-04-09T08:55:05;100232.47;;;13.76;74.63
26635;BME280;14490;54.208;37.686;2023-04-09T08:57:36;100235.13;;;13.87;78.69
26635;BME280;14490;54.208;37.686;2023-04-09T09:00:05;100230.25;;;14.13;75.74
26635;BME280;14490;54.208;37.686;2023-04-09T09:02:59;100210.81;;;14.40;78.43
26635;BME280;14490;54.208;37.686;2023-04-09T09:05:36;100209.50;;;14.55;72.94
26635;BME280;14490;54.208;37.686;2023-04-09T09:08:10;100232.09;;;14.65;69.71
26635;BME280;14490;54.208;37.686;2023-04-09T09:10:45;100125.00;;;14.19;66.30
26635;BME280;14490;54.208;37.686;2023-04-09T09:13:17;100214.84;;;14.96;65.90
26635;BME280;14490;54.208;37.686;2023-04-09T09:19:29;100205.13;;;15.64;63.66
26635;BME280;14490;54.208;37.686;2023-04-09T09:22:01;100207.16;;;15.71;62.55
26635;BME280;14490;54.208;37.686;2023-04-09T09:24:33;100207.44;;;15.68;60.45
26635;BME280;14490;54.208;37.686;2023-04-09T09:27:30;100200.31;;;15.87;60.84
26635;BME280;14490;54.208;37.686;2023-04-09T09:30:00;100162.72;;;15.53;59.04
26635;BME280;14490;54.208;37.686;2023-04-09T09:32:29;100188.19;;;15.31;56.03
26635;BME280;14490;54.208;37.686;2023-04-09T09:35:05;100196.41;;;15.20;56.88
26635;BME280;14490;54.208;37.686;2023-04-09T09:38:05;100201.91;;;15.40;58.37
26635;BME280;14490;54.208;37.686;2023-04-09T09:40:43;100193.38;;;15.54;59.91
26635;BME280;14490;54.208;37.686;2023-04-09T09:43:11;100208.97;;;15.61;59.64
26635;BME280;14490;54.208;37.686;2023-04-09T09:45:47;100180.47;;;15.37;57.69
26635;BME280;14490;54.208;37.686;2023-04-09T09:48:16;100189.09;;;15.51;56.47
26635;BME280;14490;54.208;37.686;2023-04-09T09:50:46;100185.97;;;15.56;54.77
26635;BME280;14490;54.208;37.686;2023-04-09T09:53:16;100189.28;;;15.88;55.02
26635;BME280;14490;54.208;37.686;2023-04-09T09:55:51;100173.41;;;15.93;54.78
26635;BME280;14490;54.208;37.686;2023-04-09T09:58:23;100178.03;;;15.93;53.21
26635;BME280;14490;54.208;37.686;2023-04-09T10:00:54;100101.25;;;14.84;50.51
26635;BME280;14490;54.208;37.686;2023-04-09T10:03:25;100163.16;;;15.18;51.68
26635;BME280;14490;54.208;37.686;2023-04-09T10:05:55;100160.94;;;15.43;52.82
26635;BME280;14490;54.208;37.686;2023-04-09T10:08:27;100119.09;;;15.45;52.08
26635;BME280;14490;54.208;37.686;2023-04-09T10:10:58;100095.72;;;15.54;51.86
26635;BME280;14490;54.208;37.686;2023-04-09T10:13:29;100182.59;;;16.02;50.04
26635;BME280;14490;54.208;37.686;2023-04-09T10:16:00;100183.13;;;16.24;50.22
26635;BME280;14490;54.208;37.686;2023-04-09T10:18:29;100178.97;;;16.39;48.93
26635;BME280;14490;54.208;37.686;2023-04-09T10:21:04;100174.53;;;16.58;49.07
26635;BME280;14490;54.208;37.686;2023-04-09T10:23:40;100079.84;;;16.07;49.09
26635;BME280;14490;54.208;37.686;2023-04-09T10:26:08;100166.53;;;16.47;48.07
26635;BME280;14490;54.208;37.686;2023-04-09T10:28:36;100163.38;;;16.61;47.88
26635;BME280;14490;54.208;37.686;2023-04-09T10:31:05;100166.44;;;16.85;47.29
26635;BME280;14490;54.208;37.686;2023-04-09T10:33:37;100098.72;;;16.55;45.70
26635;BME280;14490;54.208;37.686;2023-04-09T10:36:09;100077.13;;;16.53;45.86
26635;BME280;14490;54.208;37.686;2023-04-09T10:38:43;100159.50;;;17.27;46.35
26635;BME280;14490;54.208;37.686;2023-04-09T10:41:14;100121.75;;;17.42;46.22
26635;BME280;14490;54.208;37.686;2023-04-09T10:43:48;100116.91;;;17.63;45.21
26635;BME280;14490;54.208;37.686;2023-04-09T10:46:25;100158.38;;;18.10;45.14
26635;BME280;14490;54.208;37.686;2023-04-09T10:49:09;100159.28;;;18.19;42.91
26635;BME280;14490;54.208;37.686;2023-04-09T10:51:40;100146.16;;;18.14;43.51
26635;BME280;14490;54.208;37.686;2023-04-09T10:54:40;100135.34;;;18.05;43.19
26635;BME280;14490;54.208;37.686;2023-04-09T10:57:15;100142.78;;;18.02;43.46
26635;BME280;14490;54.208;37.686;2023-04-09T10:59:45;100133.09;;;17.65;43.01
26635;BME280;14490;54.208;37.686;2023-04-09T11:02:44;100130.13;;;17.76;41.88
26635;BME280;14490;54.208;37.686;2023-04-09T11:05:32;100136.88;;;18.07;42.40
26635;BME280;14490;54.208;37.686;2023-04-09T11:08:05;100146.69;;;18.18;41.73
26635;BME280;14490;54.208;37.686;2023-04-09T11:10:35;100144.34;;;18.23;41.40
26635;BME280;14490;54.208;37.686;2023-04-09T11:13:03;100141.75;;;18.21;40.93
26635;BME280;14490;54.208;37.686;2023-04-09T11:15:32;100146.56;;;18.27;41.30
26635;BME280;14490;54.208;37.686;2023-04-09T11:18:04;100140.72;;;18.40;41.10
26635;BME280;14490;54.208;37.686;2023-04-09T11:20:34;100140.94;;;18.46;41.08
26635;BME280;14490;54.208;37.686;2023-04-09T11:23:03;100091.56;;;18.24;40.67
26635;BME280;14490;54.208;37.686;2023-04-09T11:25:32;100128.19;;;18.73;40.26
26635;BME280;14490;54.208;37.686;2023-04-09T11:28:02;100129.28;;;18.88;41.01
26635;BME280;14490;54.208;37.686;2023-04-09T11:30:30;100143.28;;;18.59;40.33
26635;BME280;14490;54.208;37.686;2023-04-09T11:32:59;100129.59;;;18.51;39.98
26635;BME280;14490;54.208;37.686;2023-04-09T11:35:27;100132.38;;;18.59;40.26
26635;BME280;14490;54.208;37.686;2023-04-09T11:37:54;100139.53;;;18.60;40.43
26635;BME280;14490;54.208;37.686;2023-04-09T11:40:29;100120.84;;;18.47;40.70
26635;BME280;14490;54.208;37.686;2023-04-09T11:42:59;100119.13;;;18.46;40.58
26635;BME280;14490;54.208;37.686;2023-04-09T11:45:30;100098.88;;;18.23;39.48
26635;BME280;14490;54.208;37.686;2023-04-09T11:47:58;100124.13;;;18.33;39.26
26635;BME280;14490;54.208;37.686;2023-04-09T11:50:26;100103.63;;;18.21;39.65
26635;BME280;14490;54.208;37.686;2023-04-09T11:52:54;100125.41;;;18.21;39.20
26635;BME280;14490;54.208;37.686;2023-04-09T11:55:22;100133.69;;;17.94;38.99
26635;BME280;14490;54.208;37.686;2023-04-09T11:57:55;100108.44;;;17.84;39.29
26635;BME280;14490;54.208;37.686;2023-04-09T12:00:26;100128.66;;;17.36;38.85
26635;BME280;14490;54.208;37.686;2023-04-09T12:03:03;100129.16;;;17.05;38.84
26635;BME280;14490;54.208;37.686;2023-04-09T12:05:32;100113.78;;;16.39;39.44
26635;BME280;14490;54.208;37.686;2023-04-09T12:08:01;100116.00;;;15.98;40.07
26635;BME280;14490;54.208;37.686;2023-04-09T12:10:31;100123.97;;;16.09;39.98
26635;BME280;14490;54.208;37.686;2023-04-09T12:13:05;100107.72;;;15.61;40.33
26635;BME280;14490;54.208;37.686;2023-04-09T12:15:35;100093.88;;;15.83;40.62
26635;BME280;14490;54.208;37.686;2023-04-09T12:18:07;99958.94;;;15.08;41.03
26635;BME280;14490;54.208;37.686;2023-04-09T12:20:36;100116.56;;;16.01;40.52
26635;BME280;14490;54.208;37.686;2023-04-09T12:23:06;100109.88;;;15.76;40.16
26635;BME280;14490;54.208;37.686;2023-04-09T12:25:35;100103.16;;;15.61;40.55
26635;BME280;14490;54.208;37.686;2023-04-09T12:28:06;100108.88;;;15.68;40.85
26635;BME280;14490;54.208;37.686;2023-04-09T12:30:34;100112.28;;;15.70;40.48
26635;BME280;14490;54.208;37.686;2023-04-09T12:33:02;100114.53;;;15.46;40.87
26635;BME280;14490;54.208;37.686;2023-04-09T12:35:30;100120.41;;;14.92;41.07
26635;BME280;14490;54.208;37.686;2023-04-09T12:37:59;100107.81;;;14.51;41.62
26635;BME280;14490;54.208;37.686;2023-04-09T12:40:26;100126.94;;;14.29;42.03
26635;BME280;14490;54.208;37.686;2023-04-09T12:42:53;100101.16;;;14.13;42.50
26635;BME280;14490;54.208;37.686;2023-04-09T12:45:22;100112.25;;;14.10;42.72
26635;BME280;14490;54.208;37.686;2023-04-09T12:47:50;100092.84;;;14.05;42.48
26635;BME280;14490;54.208;37.686;2023-04-09T12:50:17;100117.78;;;14.30;43.03
26635;BME280;14490;54.208;37.686;2023-04-09T12:52:45;100104.75;;;14.35;42.75
26635;BME280;14490;54.208;37.686;2023-04-09T12:55:13;100120.06;;;14.45;42.86